Time;durP1;ratioP1;P1;durP2;ratioP2;P2;SDS_P1;SDS_P2;PMS_P1;PMS_P2;Temp;Humidity;BMP_temperature;BMP_pressure;BME280_temperature;BME280_humidity;BME280_pressure;Samples;Min_cycle;Max_cycle;Signal;HPM_P1;HPM_P2
2023/01/20 00:01:46;;;;;;;32.97;19.83;;;4.00;99.90;;;;;;5061506;28;20211;-32
2023/01/20 00:04:17;;;;;;;38.17;21.07;;;4.00;99.90;;;;;;5060829;28;20306;-32
2023/01/20 00:06:45;;;;;;;40.27;21.43;;;4.00;99.90;;;;;;5062059;28;20577;-32
2023/01/20 00:09:16;;;;;;;35.73;20.23;;;4.00;99.90;;;;;;5055187;28;20210;-32
2023/01/20 00:11:44;;;;;;;39.40;20.60;;;4.00;99.90;;;;;;5064736;28;20326;-32
2023/01/20 00:14:11;;;;;;;33.57;19.63;;;3.90;99.90;;;;;;5061006;28;20232;-32
2023/01/20 00:16:39;;;;;;;33.37;19.40;;;3.90;99.90;;;;;;5058820;28;20211;-33
2023/01/20 00:19:08;;;;;;;37.47;21.10;;;3.90;99.90;;;;;;5059860;28;20196;-32
2023/01/20 00:21:35;;;;;;;36.80;21.10;;;3.90;99.90;;;;;;5061443;28;20691;-32
2023/01/20 00:24:03;;;;;;;35.80;20.33;;;3.90;99.90;;;;;;5041959;28;20627;-32
2023/01/20 00:26:34;;;;;;;33.47;20.73;;;3.90;99.90;;;;;;5064112;28;20210;-32
2023/01/20 00:29:02;;;;;;;34.80;19.47;;;3.90;99.90;;;;;;5063461;28;20306;-32
2023/01/20 00:31:35;;;;;;;36.87;21.90;;;3.90;99.90;;;;;;5064852;28;20249;-32
2023/01/20 00:34:05;;;;;;;32.70;19.77;;;3.90;99.90;;;;;;5063145;28;20709;-32
2023/01/20 00:36:35;;;;;;;33.50;20.00;;;3.90;99.90;;;;;;5063903;28;20542;-32
2023/01/20 00:39:05;;;;;;;36.30;20.70;;;3.90;99.90;;;;;;5045654;28;20758;-32
2023/01/20 00:41:36;;;;;;;34.50;20.13;;;4.00;99.90;;;;;;5061359;28;20207;-32
2023/01/20 00:44:04;;;;;;;36.87;21.43;;;4.00;99.90;;;;;;5064809;28;20330;-32
2023/01/20 00:46:31;;;;;;;34.07;19.77;;;4.00;99.90;;;;;;5063162;28;20251;-32
2023/01/20 00:49:01;;;;;;;35.70;20.93;;;4.00;99.90;;;;;;5064727;28;20690;-32
2023/01/20 00:51:28;;;;;;;32.93;20.10;;;4.00;99.90;;;;;;5065448;28;20204;-32
2023/01/20 00:53:55;;;;;;;37.03;21.40;;;4.00;99.90;;;;;;5062027;28;20238;-32
2023/01/20 00:56:25;;;;;;;36.13;20.80;;;4.00;99.90;;;;;;5063826;28;20303;-33
2023/01/20 00:58:54;;;;;;;34.17;19.83;;;4.00;99.90;;;;;;5064993;28;20199;-32
2023/01/20 01:01:28;;;;;;;43.70;21.80;;;4.00;99.90;;;;;;5065153;28;20283;-32
2023/01/20 01:04:12;;;;;;;40.00;22.90;;;4.00;99.90;;;;;;5042491;28;20730;-32
2023/01/20 01:06:39;;;;;;;36.07;20.07;;;4.00;99.90;;;;;;5063787;28;20235;-32
2023/01/20 01:09:11;;;;;;;36.27;20.93;;;4.00;99.90;;;;;;5065869;28;20234;-32
2023/01/20 01:11:43;;;;;;;39.20;22.43;;;4.00;99.90;;;;;;5063493;28;20746;-32
2023/01/20 01:14:10;;;;;;;37.27;21.00;;;4.00;99.90;;;;;;5065538;28;20224;-32
2023/01/20 01:16:39;;;;;;;37.23;21.43;;;4.00;99.90;;;;;;5064614;28;20215;-32
2023/01/20 01:19:07;;;;;;;40.37;21.57;;;4.00;99.90;;;;;;5063520;28;20245;-32
2023/01/20 01:21:37;;;;;;;36.30;20.40;;;4.00;99.90;;;;;;5067797;28;20214;-32
2023/01/20 01:24:04;;;;;;;36.63;20.60;;;4.00;99.90;;;;;;5051070;28;20219;-32
2023/01/20 01:26:34;;;;;;;30.53;18.53;;;4.00;99.90;;;;;;5058457;28;20204;-32
2023/01/20 01:29:01;;;;;;;33.80;20.13;;;4.00;99.90;;;;;;5068959;28;20306;-32
2023/01/20 01:31:30;;;;;;;35.13;19.33;;;4.00;99.90;;;;;;5067413;28;20251;-32
2023/01/20 01:33:59;;;;;;;36.07;19.10;;;4.00;99.90;;;;;;5067986;28;20211;-33
2023/01/20 01:36:27;;;;;;;35.63;20.53;;;4.00;99.90;;;;;;5068124;28;20196;-32
2023/01/20 01:38:57;;;;;;;33.37;19.50;;;4.00;99.90;;;;;;5064164;28;20218;-32
2023/01/20 01:41:27;;;;;;;33.60;19.90;;;4.00;99.90;;;;;;5060853;28;20211;-32
2023/01/20 01:44:13;;;;;;;32.50;19.03;;;4.00;99.90;;;;;;5067338;28;20302;-33
2023/01/20 01:46:44;;;;;;;33.73;18.87;;;4.10;99.90;;;;;;5061956;28;20688;-32
2023/01/20 01:49:21;;;;;;;31.83;18.30;;;4.10;99.90;;;;;;5056636;28;20223;-32
2023/01/20 01:51:58;;;;;;;33.57;17.83;;;4.10;99.90;;;;;;5067280;28;20235;-32
2023/01/20 01:54:35;;;;;;;31.90;17.20;;;4.10;99.90;;;;;;5067735;28;20637;-32
2023/01/20 01:57:06;;;;;;;35.67;18.37;;;4.00;99.90;;;;;;5048029;28;20690;-32
2023/01/20 01:59:39;;;;;;;32.70;17.50;;;4.00;99.90;;;;;;5063959;28;20260;-32
2023/01/20 02:02:09;;;;;;;31.03;16.43;;;4.00;99.90;;;;;;5055373;28;20203;-32
2023/01/20 02:04:39;;;;;;;32.53;16.33;;;4.00;99.90;;;;;;5062956;28;20234;-32
2023/01/20 02:07:19;;;;;;;32.50;17.63;;;4.00;99.90;;;;;;5061800;28;20291;-32
2023/01/20 02:09:46;;;;;;;31.63;16.77;;;3.90;99.90;;;;;;5062684;28;20211;-32
2023/01/20 02:12:17;;;;;;;29.47;16.17;;;3.90;99.90;;;;;;5054283;28;20228;-32
2023/01/20 02:14:55;;;;;;;33.10;16.87;;;3.90;99.90;;;;;;5058215;28;20250;-32
2023/01/20 02:17:49;;;;;;;33.37;17.80;;;3.90;99.90;;;;;;5055312;28;20207;-32
2023/01/20 02:20:26;;;;;;;31.40;16.30;;;3.90;99.90;;;;;;5067175;28;20601;-32
2023/01/20 02:23:28;;;;;;;29.73;15.37;;;3.90;99.90;;;;;;5065428;28;20272;-32
2023/01/20 02:26:21;;;;;;;30.47;16.90;;;3.80;99.90;;;;;;5059466;28;20207;-32
2023/01/20 02:29:19;;;;;;;24.93;14.80;;;3.80;99.90;;;;;;5058364;28;20295;-32
2023/01/20 02:32:05;;;;;;;30.47;17.33;;;3.80;99.90;;;;;;5062078;28;20203;-32
2023/01/20 02:34:37;;;;;;;25.80;15.13;;;3.80;99.90;;;;;;5067403;28;20315;-32
2023/01/20 02:37:12;;;;;;;33.87;15.57;;;3.70;99.90;;;;;;5066709;28;20205;-32
2023/01/20 02:39:57;;;;;;;27.23;15.60;;;3.70;99.90;;;;;;5065589;28;20295;-32
2023/01/20 02:42:49;;;;;;;26.10;15.27;;;3.70;99.90;;;;;;5054950;28;20219;-32
2023/01/20 02:45:31;;;;;;;31.77;15.90;;;3.70;99.90;;;;;;5063668;28;20215;-32
2023/01/20 02:48:18;;;;;;;29.23;16.50;;;3.70;99.90;;;;;;5055967;28;20227;-32
2023/01/20 02:51:13;;;;;;;26.00;16.17;;;3.70;99.90;;;;;;5065876;28;20696;-32
2023/01/20 02:53:54;;;;;;;28.73;16.50;;;3.70;99.90;;;;;;5048188;28;20216;-32
2023/01/20 02:56:28;;;;;;;28.07;17.53;;;3.70;99.90;;;;;;5057567;28;20191;-32
2023/01/20 02:59:15;;;;;;;29.80;17.63;;;3.70;99.90;;;;;;5067418;28;20199;-32
2023/01/20 03:01:55;;;;;;;32.20;17.70;;;3.70;99.90;;;;;;5066620;28;20215;-33
2023/01/20 03:04:28;;;;;;;32.07;16.40;;;3.70;99.90;;;;;;5065252;28;20207;-32
2023/01/20 03:06:58;;;;;;;27.13;16.43;;;3.60;99.90;;;;;;5059692;28;20209;-32
2023/01/20 03:09:39;;;;;;;28.93;16.60;;;3.70;99.90;;;;;;5060372;28;20223;-32
2023/01/20 03:12:29;;;;;;;30.77;17.13;;;3.70;99.90;;;;;;5046743;28;20203;-32
2023/01/20 03:14:57;;;;;;;30.53;16.80;;;3.60;99.90;;;;;;5047358;28;20278;-32
2023/01/20 03:17:24;;;;;;;29.60;17.50;;;3.70;99.90;;;;;;5046095;28;20307;-32
2023/01/20 03:19:54;;;;;;;27.43;16.27;;;3.60;99.90;;;;;;5045127;28;20275;-32
2023/01/20 03:22:28;;;;;;;30.40;16.80;;;3.60;99.90;;;;;;5059988;28;20701;-32
2023/01/20 03:24:59;;;;;;;33.37;17.50;;;3.70;99.90;;;;;;5064365;28;20635;-32
2023/01/20 03:27:29;;;;;;;30.13;16.73;;;3.70;99.90;;;;;;5064815;28;20210;-32
2023/01/20 03:29:56;;;;;;;26.97;15.30;;;3.70;99.90;;;;;;5064051;28;20226;-32
2023/01/20 03:32:27;;;;;;;27.37;16.73;;;3.60;99.90;;;;;;5064856;28;20630;-33
2023/01/20 03:34:55;;;;;;;29.57;15.97;;;3.60;99.90;;;;;;5054389;28;20227;-32
2023/01/20 03:37:25;;;;;;;28.77;15.87;;;3.70;99.90;;;;;;5049228;28;20326;-32
2023/01/20 03:39:52;;;;;;;33.77;17.67;;;3.70;99.90;;;;;;5046299;28;20746;-32
2023/01/20 03:42:34;;;;;;;31.20;17.03;;;3.60;99.90;;;;;;5058805;28;20223;-32
2023/01/20 03:45:30;;;;;;;37.00;19.33;;;3.60;99.90;;;;;;5063904;28;21324;-32
2023/01/20 03:48:01;;;;;;;29.43;17.10;;;3.60;99.90;;;;;;5078762;28;20257;-32
2023/01/20 03:50:55;;;;;;;30.47;17.47;;;3.60;99.90;;;;;;5066391;28;20228;-32
2023/01/20 03:53:36;;;;;;;31.57;17.10;;;3.60;99.90;;;;;;5050986;28;20280;-32
2023/01/20 03:56:20;;;;;;;34.03;17.13;;;3.60;99.90;;;;;;5063802;28;20215;-32
2023/01/20 03:58:52;;;;;;;31.17;16.67;;;3.60;99.90;;;;;;5061455;28;20207;-32
2023/01/20 04:01:33;;;;;;;35.73;17.43;;;3.60;99.90;;;;;;5062254;28;20713;-33
2023/01/20 04:04:02;;;;;;;30.37;16.17;;;3.60;99.90;;;;;;5066012;28;20223;-33
2023/01/20 04:06:32;;;;;;;33.17;17.60;;;3.60;99.90;;;;;;5063133;28;20195;-32
2023/01/20 04:09:05;;;;;;;28.50;15.77;;;3.50;99.90;;;;;;5065870;28;20685;-32
2023/01/20 04:11:35;;;;;;;31.87;17.40;;;3.50;99.90;;;;;;5065394;28;20760;-32
2023/01/20 04:14:06;;;;;;;33.10;17.60;;;3.50;99.90;;;;;;5065428;28;20207;-32
2023/01/20 04:16:35;;;;;;;32.30;17.00;;;3.50;99.90;;;;;;5060515;28;20210;-32
2023/01/20 04:19:02;;;;;;;29.93;17.20;;;3.50;99.90;;;;;;5063943;28;20710;-32
2023/01/20 04:21:56;;;;;;;33.90;18.50;;;3.50;99.90;;;;;;5054688;28;20288;-32
2023/01/20 04:24:29;;;;;;;36.20;18.67;;;3.50;99.90;;;;;;5064581;28;20220;-32
2023/01/20 04:26:56;;;;;;;33.53;18.40;;;3.50;99.90;;;;;;5061882;28;20208;-32
2023/01/20 04:29:23;;;;;;;31.67;17.70;;;3.50;99.90;;;;;;5051765;28;20204;-32
2023/01/20 04:32:03;;;;;;;33.00;17.27;;;3.40;99.90;;;;;;5064416;28;20244;-32
2023/01/20 04:34:30;;;;;;;30.73;17.57;;;3.50;99.90;;;;;;5057951;28;20219;-32
2023/01/20 04:36:59;;;;;;;35.97;18.40;;;3.50;99.90;;;;;;5056884;28;20216;-32
2023/01/20 04:39:26;;;;;;;34.10;18.90;;;3.50;99.90;;;;;;5045834;28;20624;-32
2023/01/20 04:41:54;;;;;;;32.77;18.60;;;3.50;99.90;;;;;;5053512;28;20200;-32
2023/01/20 04:44:23;;;;;;;34.13;18.93;;;3.50;99.90;;;;;;5064710;28;20215;-32
2023/01/20 04:46:55;;;;;;;33.50;19.20;;;3.40;99.90;;;;;;5064749;28;20203;-32
2023/01/20 04:49:23;;;;;;;34.40;18.30;;;3.40;99.90;;;;;;5065533;28;20200;-32
2023/01/20 04:51:50;;;;;;;34.37;19.27;;;3.50;99.90;;;;;;5063848;28;20729;-32
2023/01/20 04:54:19;;;;;;;32.93;18.20;;;3.40;99.90;;;;;;5049573;28;20204;-32
2023/01/20 04:56:49;;;;;;;31.73;18.47;;;3.40;99.90;;;;;;5048759;28;20291;-33
2023/01/20 04:59:19;;;;;;;31.70;18.60;;;3.40;99.90;;;;;;5055886;28;20212;-32
2023/01/20 05:01:48;;;;;;;35.93;18.87;;;3.40;99.90;;;;;;5048541;28;20303;-32
2023/01/20 05:04:16;;;;;;;37.20;19.00;;;3.40;99.90;;;;;;5048155;28;20246;-33
2023/01/20 05:06:43;;;;;;;39.17;18.23;;;3.40;99.90;;;;;;5049395;28;20220;-32
2023/01/20 05:09:16;;;;;;;33.97;19.43;;;3.40;99.90;;;;;;5062154;28;20204;-32
2023/01/20 05:11:43;;;;;;;36.23;20.73;;;3.40;99.90;;;;;;5066931;28;20212;-32
2023/01/20 05:14:13;;;;;;;35.70;19.77;;;3.40;99.90;;;;;;5068237;28;20290;-32
2023/01/20 05:16:43;;;;;;;33.70;19.77;;;3.40;99.90;;;;;;5057246;28;20290;-32
2023/01/20 05:19:11;;;;;;;36.13;19.70;;;3.40;99.90;;;;;;5060536;28;21901;-32
2023/01/20 05:21:41;;;;;;;33.37;19.67;;;3.40;99.90;;;;;;5062461;28;20248;-32
2023/01/20 05:24:11;;;;;;;33.17;19.20;;;3.40;99.90;;;;;;5063415;28;20307;-32
2023/01/20 05:26:38;;;;;;;35.23;19.80;;;3.40;99.90;;;;;;5048227;28;20223;-32
2023/01/20 05:29:05;;;;;;;34.53;20.20;;;3.50;99.90;;;;;;5063384;28;20686;-32
2023/01/20 05:31:32;;;;;;;34.73;19.30;;;3.50;99.90;;;;;;5047863;28;20694;-32
2023/01/20 05:34:00;;;;;;;33.83;18.17;;;3.50;99.90;;;;;;5067570;28;20199;-32
2023/01/20 05:36:27;;;;;;;34.13;19.97;;;3.50;99.90;;;;;;5068023;28;20318;-32
2023/01/20 05:38:54;;;;;;;32.10;19.20;;;3.50;99.90;;;;;;5067541;28;20737;-32
2023/01/20 05:41:21;;;;;;;36.47;19.27;;;3.50;99.90;;;;;;5068363;28;20220;-32
2023/01/20 05:43:52;;;;;;;33.67;19.50;;;3.50;99.90;;;;;;5066517;28;20200;-32
2023/01/20 05:46:24;;;;;;;34.60;18.30;;;3.50;99.90;;;;;;5066218;28;20223;-32
2023/01/20 05:48:53;;;;;;;34.50;19.57;;;3.50;99.90;;;;;;5049676;28;22618;-32
2023/01/20 05:51:23;;;;;;;34.40;19.07;;;3.50;99.90;;;;;;5065691;28;20302;-32
2023/01/20 05:53:55;;;;;;;33.13;18.87;;;3.60;99.90;;;;;;5050621;28;20214;-32
2023/01/20 05:56:22;;;;;;;33.53;18.57;;;3.50;99.90;;;;;;5058324;28;20259;-32
2023/01/20 05:58:54;;;;;;;31.30;18.30;;;3.50;99.90;;;;;;5054815;28;20208;-32
2023/01/20 06:01:26;;;;;;;32.93;18.20;;;3.50;99.90;;;;;;5061191;28;20334;-33
2023/01/20 06:03:53;;;;;;;32.20;18.60;;;3.50;99.90;;;;;;5065187;28;20208;-32
2023/01/20 06:06:23;;;;;;;32.00;17.83;;;3.50;99.90;;;;;;5060247;28;20210;-33
2023/01/20 06:08:55;;;;;;;32.80;19.87;;;3.50;99.90;;;;;;5059822;28;20615;-32
2023/01/20 06:11:24;;;;;;;30.67;18.03;;;3.50;99.90;;;;;;5060143;28;20700;-32
2023/01/20 06:13:51;;;;;;;32.87;18.63;;;3.50;99.90;;;;;;5059230;28;20212;-32
2023/01/20 06:16:21;;;;;;;32.70;19.70;;;3.50;99.90;;;;;;5060063;28;20219;-32
2023/01/20 06:18:48;;;;;;;33.37;20.33;;;3.50;99.90;;;;;;5058486;28;20674;-32
2023/01/20 06:21:15;;;;;;;33.67;19.23;;;3.50;99.90;;;;;;5058509;28;20304;-32
2023/01/20 06:23:45;;;;;;;35.40;19.23;;;3.60;99.90;;;;;;5059258;28;20201;-32
2023/01/20 06:26:15;;;;;;;36.57;20.63;;;3.60;99.90;;;;;;5053393;28;20713;-32
2023/01/20 06:28:42;;;;;;;34.73;19.77;;;3.60;99.90;;;;;;5053017;28;20292;-33
2023/01/20 06:31:16;;;;;;;36.43;20.47;;;3.50;99.90;;;;;;5054992;28;20220;-32
2023/01/20 06:33:50;;;;;;;32.00;19.00;;;3.50;99.90;;;;;;5063432;28;20212;-32
2023/01/20 06:36:17;;;;;;;36.13;20.53;;;3.50;99.90;;;;;;5061138;28;20229;-32
2023/01/20 06:38:49;;;;;;;38.07;22.17;;;3.50;99.90;;;;;;5047266;28;20332;-33
2023/01/20 06:41:18;;;;;;;35.33;21.43;;;3.50;99.90;;;;;;5066301;28;20253;-33
2023/01/20 06:43:45;;;;;;;35.23;22.00;;;3.50;99.90;;;;;;5065585;28;20577;-33
2023/01/20 06:46:16;;;;;;;42.87;22.07;;;3.50;99.90;;;;;;5066483;28;20258;-32
2023/01/20 06:48:46;;;;;;;36.50;22.97;;;3.50;99.90;;;;;;5061695;28;20259;-33
2023/01/20 06:51:19;;;;;;;36.67;22.73;;;3.50;99.90;;;;;;5065270;28;20612;-33
2023/01/20 06:53:46;;;;;;;38.57;22.20;;;3.50;99.90;;;;;;5066429;28;20743;-33
2023/01/20 06:56:21;;;;;;;37.40;23.27;;;3.50;99.90;;;;;;5065189;28;20230;-33
2023/01/20 06:58:48;;;;;;;37.40;22.47;;;3.50;99.90;;;;;;5066301;28;20199;-33
2023/01/20 07:01:29;;;;;;;40.23;23.30;;;3.50;99.90;;;;;;5064763;28;20303;-32
2023/01/20 07:03:56;;;;;;;44.47;23.50;;;3.60;99.90;;;;;;5065608;28;20199;-33
2023/01/20 07:06:28;;;;;;;40.90;22.33;;;3.50;99.90;;;;;;5066707;28;20295;-33
2023/01/20 07:08:59;;;;;;;34.97;21.57;;;3.50;99.90;;;;;;5066013;28;20705;-32
2023/01/20 07:11:29;;;;;;;35.33;22.10;;;3.50;99.90;;;;;;5066209;28;20206;-33
2023/01/20 07:14:01;;;;;;;39.70;22.87;;;3.50;99.90;;;;;;5064957;28;20726;-32
2023/01/20 07:16:31;;;;;;;34.10;20.97;;;3.50;99.90;;;;;;5065440;28;20586;-32
2023/01/20 07:19:01;;;;;;;35.00;21.47;;;3.50;99.90;;;;;;5061133;28;20265;-32
2023/01/20 07:21:31;;;;;;;39.20;22.13;;;3.50;99.90;;;;;;5052635;28;20200;-32
2023/01/20 07:24:02;;;;;;;35.83;21.47;;;3.50;99.90;;;;;;5058022;28;20215;-32
2023/01/20 07:26:32;;;;;;;33.70;19.37;;;3.60;99.90;;;;;;5063046;28;20682;-32
2023/01/20 07:28:59;;;;;;;35.97;19.87;;;3.60;99.90;;;;;;5064105;28;20208;-32
2023/01/20 07:31:30;;;;;;;35.40;20.23;;;3.60;99.90;;;;;;5057861;28;20662;-32
2023/01/20 07:34:00;;;;;;;34.47;20.50;;;3.60;99.90;;;;;;5062136;28;20227;-32
2023/01/20 07:36:32;;;;;;;34.33;20.10;;;3.60;99.90;;;;;;5061333;28;20318;-32
2023/01/20 07:38:59;;;;;;;31.60;18.43;;;3.60;99.90;;;;;;5061864;28;20204;-32
2023/01/20 07:41:26;;;;;;;33.70;19.93;;;3.60;99.90;;;;;;5058163;28;20303;-35
2023/01/20 07:43:56;;;;;;;34.23;20.80;;;3.60;99.90;;;;;;5066351;28;20246;-32
2023/01/20 07:46:25;;;;;;;34.47;20.70;;;3.70;99.90;;;;;;5076862;28;20261;-32
2023/01/20 07:48:54;;;;;;;33.80;19.63;;;3.60;99.90;;;;;;5059639;28;20753;-33
2023/01/20 07:51:21;;;;;;;40.63;19.93;;;3.70;99.90;;;;;;5074887;28;20207;-32
2023/01/20 07:53:53;;;;;;;36.40;20.77;;;3.70;99.90;;;;;;5063970;28;20688;-32
2023/01/20 07:56:26;;;;;;;34.97;19.40;;;3.70;99.90;;;;;;5064679;28;20223;-32
2023/01/20 07:58:54;;;;;;;33.27;19.43;;;3.70;99.90;;;;;;5071431;28;20211;-32
2023/01/20 08:01:23;;;;;;;35.60;21.00;;;3.70;99.90;;;;;;5063091;28;20203;-32
2023/01/20 08:03:51;;;;;;;32.83;19.63;;;3.70;99.90;;;;;;5062617;28;20889;-32
2023/01/20 08:06:22;;;;;;;34.30;19.67;;;3.70;99.90;;;;;;5062813;28;20239;-32
2023/01/20 08:08:58;;;;;;;35.27;19.67;;;3.70;99.90;;;;;;5062961;28;20288;-32
2023/01/20 08:11:25;;;;;;;35.13;19.87;;;3.70;99.90;;;;;;5064622;28;20704;-32
2023/01/20 08:13:53;;;;;;;33.63;20.03;;;3.70;99.90;;;;;;5062529;28;20288;-32
2023/01/20 08:16:20;;;;;;;33.63;19.80;;;3.80;99.90;;;;;;5061137;28;20219;-32
2023/01/20 08:18:48;;;;;;;32.13;18.87;;;3.70;99.90;;;;;;5059700;28;20206;-32
2023/01/20 08:21:18;;;;;;;34.97;20.97;;;3.80;99.90;;;;;;5065311;28;20291;-32
2023/01/20 08:23:45;;;;;;;33.90;19.67;;;3.80;99.90;;;;;;5063626;28;20298;-32
2023/01/20 08:26:13;;;;;;;35.90;19.00;;;3.80;99.90;;;;;;5064433;28;20296;-32
2023/01/20 08:28:40;;;;;;;46.30;20.60;;;3.80;99.90;;;;;;5061727;28;20196;-32
2023/01/20 08:31:12;;;;;;;37.70;19.40;;;3.80;99.90;;;;;;5057355;28;20214;-32
2023/01/20 08:33:41;;;;;;;33.67;20.17;;;3.80;99.90;;;;;;5059494;28;20219;-32
2023/01/20 08:36:18;;;;;;;32.33;18.60;;;3.80;99.90;;;;;;5056996;28;20784;-32
2023/01/20 08:38:46;;;;;;;37.07;18.60;;;3.80;99.90;;;;;;5062782;28;20758;-32
2023/01/20 08:41:31;;;;;;;32.20;18.10;;;3.80;99.90;;;;;;5060038;28;20220;-32
2023/01/20 08:43:59;;;;;;;33.97;18.43;;;3.80;99.90;;;;;;5044876;28;20231;-32
2023/01/20 08:46:30;;;;;;;32.10;18.53;;;3.80;99.90;;;;;;5059093;28;20210;-32
2023/01/20 08:48:57;;;;;;;32.27;18.90;;;3.80;99.90;;;;;;5044572;28;20227;-32
2023/01/20 08:51:30;;;;;;;35.53;18.23;;;3.80;99.90;;;;;;5064837;28;20223;-32
2023/01/20 08:53:58;;;;;;;30.40;18.13;;;3.90;99.90;;;;;;5064999;28;20214;-32
2023/01/20 08:56:27;;;;;;;31.73;17.53;;;3.90;99.90;;;;;;5064546;28;20223;-32
2023/01/20 08:58:58;;;;;;;31.73;17.50;;;3.90;99.90;;;;;;5065135;28;20200;-32
2023/01/20 09:01:28;;;;;;;31.97;19.03;;;3.90;99.90;;;;;;5063756;28;20199;-32
2023/01/20 09:03:55;;;;;;;29.97;17.37;;;3.90;99.90;;;;;;5053323;28;20196;-32
2023/01/20 09:06:48;;;;;;;31.63;16.57;;;3.90;99.90;;;;;;5052573;28;20226;-32
2023/01/20 09:09:17;;;;;;;24.17;15.50;;;3.90;99.90;;;;;;5061993;28;20207;-32
2023/01/20 09:11:49;;;;;;;29.13;15.93;;;3.90;99.90;;;;;;5044907;28;20638;-32
2023/01/20 09:14:19;;;;;;;31.43;17.10;;;3.90;99.90;;;;;;5059503;28;20293;-32
2023/01/20 09:16:46;;;;;;;26.70;16.20;;;4.00;99.90;;;;;;5055266;28;20281;-33
2023/01/20 09:19:16;;;;;;;26.80;15.87;;;4.00;99.90;;;;;;5061144;28;20409;-32
2023/01/20 09:21:43;;;;;;;27.60;17.17;;;3.90;99.90;;;;;;5063738;28;20872;-32
2023/01/20 09:24:10;;;;;;;28.33;15.57;;;4.00;99.90;;;;;;5060965;28;20303;-32
2023/01/20 09:26:37;;;;;;;23.90;16.00;;;4.00;99.90;;;;;;5063408;28;20208;-32
2023/01/20 09:29:08;;;;;;;28.40;17.83;;;4.00;99.90;;;;;;5064532;28;20581;-32
2023/01/20 09:31:44;;;;;;;29.40;15.80;;;4.10;99.90;;;;;;5061320;28;20224;-32
2023/01/20 09:34:20;;;;;;;27.03;15.63;;;4.10;99.90;;;;;;5062934;28;20211;-32
2023/01/20 09:43:52;;;;;;;28.67;15.97;;;4.20;99.90;;;;;;5062246;28;20997;-32
2023/01/20 09:45:59;;;;;;;28.10;15.17;;;4.30;99.90;;;;;;5057588;28;20212;-32
2023/01/20 09:54:54;;;;;;;24.13;14.20;;;4.40;99.90;;;;;;5065926;28;20261;-32
2023/01/20 09:57:24;;;;;;;26.90;14.23;;;4.50;99.90;;;;;;5067107;28;20231;-32
2023/01/20 10:00:04;;;;;;;28.63;14.43;;;4.50;99.90;;;;;;5064247;28;20298;-32
2023/01/20 10:02:35;;;;;;;31.70;15.47;;;4.70;99.90;;;;;;5064112;28;20204;-32
2023/01/20 10:05:15;;;;;;;21.27;13.53;;;4.70;99.90;;;;;;5064943;28;20287;-32
2023/01/20 10:07:49;;;;;;;24.13;13.50;;;4.70;99.90;;;;;;5065380;28;20211;-32
2023/01/20 10:10:36;;;;;;;22.10;13.17;;;4.80;99.90;;;;;;5064354;28;20218;-32
2023/01/20 10:13:26;;;;;;;22.00;13.07;;;4.80;99.90;;;;;;5062473;28;20749;-32
2023/01/20 10:15:58;;;;;;;22.20;14.20;;;4.90;99.90;;;;;;5056852;28;20763;-32
2023/01/20 10:18:58;;;;;;;18.33;12.40;;;4.90;99.90;;;;;;5056218;28;20291;-32
2023/01/20 10:21:44;;;;;;;21.27;12.90;;;4.90;99.90;;;;;;5063947;28;20261;-32
2023/01/20 10:24:17;;;;;;;29.60;14.23;;;5.00;99.90;;;;;;5066285;28;20207;-32
2023/01/20 10:27:00;;;;;;;19.97;12.33;;;5.00;99.90;;;;;;5066614;28;20268;-32
2023/01/20 10:29:33;;;;;;;23.10;11.97;;;5.00;99.90;;;;;;5060427;28;20300;-32
2023/01/20 10:32:10;;;;;;;18.93;12.03;;;5.00;99.90;;;;;;5060895;28;20241;-32
2023/01/20 10:34:45;;;;;;;21.93;12.37;;;5.00;99.90;;;;;;5062178;28;20229;-32
2023/01/20 10:37:16;;;;;;;20.77;11.50;;;5.10;99.90;;;;;;5067104;28;20771;-32
2023/01/20 10:39:52;;;;;;;17.90;12.20;;;5.10;99.90;;;;;;5061439;28;20199;-32
2023/01/20 10:42:19;;;;;;;19.97;12.03;;;5.10;99.90;;;;;;5060402;28;20257;-33
2023/01/20 10:44:48;;;;;;;24.43;11.47;;;5.20;99.90;;;;;;5064929;28;20204;-32
2023/01/20 10:47:16;;;;;;;20.43;12.27;;;5.20;99.90;;;;;;5063545;28;20616;-32
2023/01/20 10:50:04;;;;;;;16.83;11.10;;;5.30;99.90;;;;;;5059819;28;20634;-32
2023/01/20 10:52:52;;;;;;;22.33;11.50;;;5.30;99.90;;;;;;5047011;28;20339;-32
2023/01/20 10:55:44;;;;;;;20.17;11.13;;;5.30;99.90;;;;;;5047252;28;20212;-32
2023/01/20 10:58:31;;;;;;;20.33;11.77;;;5.30;99.90;;;;;;5065352;28;20265;-32
2023/01/20 11:01:02;;;;;;;22.40;11.40;;;5.30;99.90;;;;;;5067487;28;20230;-33
2023/01/20 11:03:40;;;;;;;21.73;11.17;;;5.40;99.90;;;;;;5065539;28;20257;-32
2023/01/20 11:06:18;;;;;;;23.80;11.87;;;5.40;99.90;;;;;;5065016;28;20589;-32
2023/01/20 11:08:48;;;;;;;21.20;10.40;;;5.40;99.90;;;;;;5053288;28;20188;-32
2023/01/20 11:11:22;;;;;;;21.50;10.90;;;5.50;99.90;;;;;;5063224;28;20230;-32
2023/01/20 11:13:51;;;;;;;24.63;11.63;;;5.50;99.90;;;;;;5064489;28;20654;-32
2023/01/20 11:16:27;;;;;;;22.50;11.20;;;5.50;99.90;;;;;;5046156;28;20277;-32
2023/01/20 11:19:03;;;;;;;17.13;10.13;;;5.60;99.90;;;;;;5052675;28;20768;-32
2023/01/20 11:21:34;;;;;;;19.43;10.50;;;5.60;99.90;;;;;;5061434;28;20207;-32
2023/01/20 11:24:23;;;;;;;16.73;10.10;;;5.70;99.90;;;;;;5059331;28;20191;-32
2023/01/20 11:26:51;;;;;;;17.37;9.23;;;5.80;99.90;;;;;;5062905;28;20235;-32
2023/01/20 11:29:20;;;;;;;16.57;9.37;;;5.80;99.90;;;;;;5063951;28;20586;-32
2023/01/20 11:31:58;;;;;;;20.27;9.40;;;5.80;99.90;;;;;;5063858;28;20203;-32
2023/01/20 11:34:30;;;;;;;21.30;10.00;;;5.90;99.90;;;;;;5063277;28;20203;-32
2023/01/20 11:37:04;;;;;;;19.20;9.70;;;5.90;99.90;;;;;;5062896;28;20973;-32
2023/01/20 11:39:34;;;;;;;21.40;9.80;;;5.90;99.90;;;;;;5064435;28;20461;-32
2023/01/20 11:42:20;;;;;;;14.63;8.53;;;6.00;99.90;;;;;;5058484;28;20223;-32
2023/01/20 11:44:56;;;;;;;14.20;8.70;;;6.00;99.90;;;;;;5065089;28;20200;-32
2023/01/20 11:47:37;;;;;;;13.13;7.60;;;6.00;99.90;;;;;;5062475;28;20674;-32
2023/01/20 11:50:06;;;;;;;18.57;8.03;;;6.00;99.90;;;;;;5056221;28;20282;-32
2023/01/20 11:52:42;;;;;;;14.43;8.50;;;6.00;99.90;;;;;;5058668;28;20281;-32
2023/01/20 11:55:19;;;;;;;12.33;7.23;;;6.00;99.90;;;;;;5066146;28;20694;-32
2023/01/20 11:57:57;;;;;;;17.53;7.40;;;6.00;99.90;;;;;;5063772;28;20233;-32
2023/01/20 12:00:40;;;;;;;16.13;7.27;;;6.00;99.90;;;;;;5062994;28;21381;-32
2023/01/20 12:03:23;;;;;;;18.60;8.37;;;6.00;99.90;;;;;;5064728;28;20191;-32
2023/01/20 12:06:17;;;;;;;14.57;7.30;;;6.00;99.90;;;;;;5066839;28;20607;-32
2023/01/20 12:08:57;;;;;;;13.17;7.23;;;6.10;99.90;;;;;;5064042;28;20211;-32
2023/01/20 12:11:35;;;;;;;14.67;7.70;;;6.10;99.90;;;;;;5065354;28;20203;-32
2023/01/20 12:14:27;;;;;;;16.70;8.20;;;6.10;99.90;;;;;;5066892;28;20211;-32
2023/01/20 12:17:13;;;;;;;15.20;8.07;;;6.10;99.90;;;;;;5062842;28;20842;-32
2023/01/20 12:19:50;;;;;;;14.67;7.57;;;6.20;99.90;;;;;;5065123;28;20208;-32
2023/01/20 12:22:37;;;;;;;14.53;7.80;;;6.20;99.90;;;;;;5065199;28;20751;-32
2023/01/20 12:25:18;;;;;;;12.93;6.87;;;6.20;99.90;;;;;;5066352;28;20765;-32
2023/01/20 12:28:03;;;;;;;17.10;7.83;;;6.20;99.90;;;;;;5057898;28;20207;-30
2023/01/20 12:30:38;;;;;;;15.63;7.40;;;6.20;99.90;;;;;;5066515;28;20223;-30
2023/01/20 12:33:27;;;;;;;14.27;7.23;;;6.20;99.90;;;;;;5046586;28;20258;-30
2023/01/20 12:35:54;;;;;;;16.40;7.77;;;6.20;99.90;;;;;;5062098;28;20203;-30
2023/01/20 12:38:28;;;;;;;16.23;7.17;;;6.20;99.90;;;;;;5062255;28;20561;-30
2023/01/20 12:41:02;;;;;;;12.07;7.07;;;6.30;99.90;;;;;;5061460;28;20203;-30
2023/01/20 12:43:46;;;;;;;12.77;6.93;;;6.20;99.90;;;;;;5059516;28;20253;-30
2023/01/20 12:46:50;;;;;;;11.03;7.03;;;6.30;99.90;;;;;;5065071;28;20207;-30
2023/01/20 12:49:50;;;;;;;11.57;6.83;;;6.20;99.90;;;;;;5063137;28;20229;-30
2023/01/20 12:52:28;;;;;;;8.90;6.47;;;6.10;99.90;;;;;;5060455;28;20955;-30
2023/01/20 12:55:10;;;;;;;11.80;6.77;;;6.00;99.90;;;;;;5060382;28;20196;-31
2023/01/20 12:57:42;;;;;;;10.00;6.30;;;6.00;99.90;;;;;;5057321;28;20219;-30
2023/01/20 13:00:23;;;;;;;11.77;6.97;;;5.90;99.90;;;;;;5064357;28;20763;-30
2023/01/20 13:03:39;;;;;;;8.63;6.17;;;5.90;99.90;;;;;;5060557;28;20226;-30
2023/01/20 13:06:23;;;;;;;9.40;6.17;;;5.90;99.90;;;;;;5059968;28;20204;-30
2023/01/20 13:09:16;;;;;;;9.17;6.90;;;5.90;99.90;;;;;;5044638;28;20223;-30
2023/01/20 13:12:17;;;;;;;16.67;7.77;;;5.90;99.90;;;;;;5051405;28;20394;-30
2023/01/20 13:14:55;;;;;;;9.47;6.33;;;5.80;99.90;;;;;;5063433;28;20714;-30
2023/01/20 13:17:49;;;;;;;14.57;7.20;;;5.80;99.90;;;;;;5058417;28;20274;-30
2023/01/20 13:20:26;;;;;;;12.07;6.23;;;5.80;99.90;;;;;;5048650;28;20211;-31
2023/01/20 13:22:55;;;;;;;12.47;7.03;;;5.80;99.90;;;;;;5059099;28;20246;-30
2023/01/20 13:25:23;;;;;;;14.00;7.57;;;5.70;99.90;;;;;;5064177;28;20196;-31